Time;durP1;ratioP1;P1;durP2;ratioP2;P2;SDS_P1;SDS_P2;PMS_P1;PMS_P2;Temp;Humidity;BMP_temperature;BMP_pressure;BME280_temperature;BME280_humidity;BME280_pressure;Samples;Min_cycle;Max_cycle;Signal;HPM_P1;HPM_P2
2023/04/25 00:01:51;;;;;;;9.02;2.60;;;6.90;99.90;;;;;;5019873;28;20505;-84
2023/04/25 00:04:16;;;;;;;7.18;1.80;;;6.80;99.90;;;;;;5025964;28;20392;-84
2023/04/25 00:06:42;;;;;;;4.10;1.73;;;6.70;99.90;;;;;;5020015;28;20064;-84
2023/04/25 00:09:09;;;;;;;5.57;1.77;;;6.70;99.90;;;;;;5033707;28;20053;-82
2023/04/25 00:11:36;;;;;;;4.53;1.85;;;6.60;99.90;;;;;;5024465;28;20038;-83
2023/04/25 00:14:02;;;;;;;5.50;1.70;;;6.60;99.90;;;;;;5033356;28;20036;-82
2023/04/25 00:16:29;;;;;;;9.23;2.45;;;6.60;99.90;;;;;;5024600;28;20387;-83
2023/04/25 00:18:55;;;;;;;4.80;1.70;;;6.50;99.90;;;;;;5034748;28;20036;-85
2023/04/25 00:21:20;;;;;;;6.63;2.40;;;6.50;99.90;;;;;;5028331;28;20030;-84
2023/04/25 00:23:47;;;;;;;5.45;1.65;;;6.40;99.90;;;;;;5028289;28;20068;-84
2023/04/25 00:26:12;;;;;;;4.63;1.67;;;6.40;99.90;;;;;;5032642;28;20033;-85
2023/04/25 00:28:39;;;;;;;3.95;1.40;;;6.30;99.90;;;;;;5030880;28;20017;-86
2023/04/25 00:31:05;;;;;;;6.13;1.75;;;6.40;99.90;;;;;;5027123;28;20100;-86
2023/04/25 00:33:31;;;;;;;4.80;1.75;;;6.30;99.90;;;;;;5023007;28;20109;-84
2023/04/25 00:35:56;;;;;;;5.63;1.60;;;6.30;99.90;;;;;;5023292;28;20104;-86
2023/04/25 00:38:22;;;;;;;6.25;1.88;;;6.30;99.90;;;;;;5026718;28;20026;-88
2023/04/25 00:40:48;;;;;;;4.78;1.85;;;6.30;99.90;;;;;;5031439;28;20475;-85
2023/04/25 00:43:13;;;;;;;6.82;1.80;;;6.40;99.90;;;;;;5032636;28;20463;-87
2023/04/25 00:45:39;;;;;;;5.35;1.73;;;6.40;99.90;;;;;;5031212;28;20548;-90
2023/04/25 00:48:05;;;;;;;6.65;2.30;;;6.50;99.90;;;;;;5033112;28;20060;-86
2023/04/25 00:50:33;;;;;;;6.07;1.95;;;6.50;99.90;;;;;;5030296;28;20975;-86
2023/04/25 00:53:00;;;;;;;7.45;2.40;;;6.50;99.90;;;;;;5032686;28;20030;-85
2023/04/25 00:55:27;;;;;;;6.53;2.15;;;6.50;99.90;;;;;;5041897;28;20038;-85
2023/04/25 00:57:52;;;;;;;8.98;2.95;;;6.50;99.90;;;;;;5034881;28;20044;-86
2023/04/25 01:00:19;;;;;;;8.48;2.85;;;6.50;99.90;;;;;;5023971;28;20034;-85
2023/04/25 01:02:46;;;;;;;6.20;2.30;;;6.40;99.90;;;;;;5022906;28;20024;-84
2023/04/25 01:05:12;;;;;;;6.57;2.38;;;6.30;99.90;;;;;;5022834;28;20025;-86
2023/04/25 01:07:38;;;;;;;8.70;2.50;;;6.20;99.90;;;;;;5022652;28;20350;-83
2023/04/25 01:10:05;;;;;;;7.45;2.67;;;6.10;99.90;;;;;;5037221;28;20756;-84
2023/04/25 01:12:31;;;;;;;5.88;2.10;;;6.10;99.90;;;;;;5029965;28;20108;-81
2023/04/25 01:14:57;;;;;;;5.95;2.05;;;6.00;99.90;;;;;;5026220;28;20108;-83
2023/04/25 01:17:23;;;;;;;5.85;2.00;;;6.00;99.90;;;;;;5025364;28;20104;-85
2023/04/25 01:19:50;;;;;;;4.65;1.80;;;6.00;99.90;;;;;;5027511;28;20041;-85
2023/04/25 01:22:16;;;;;;;6.07;2.10;;;6.00;99.90;;;;;;5043925;28;20092;-87
2023/04/25 01:24:42;;;;;;;7.80;2.60;;;6.00;99.90;;;;;;5031846;28;20040;-86
2023/04/25 01:27:08;;;;;;;10.95;2.72;;;6.00;99.90;;;;;;5027744;28;20418;-84
2023/04/25 01:29:36;;;;;;;7.13;3.72;;;6.00;99.90;;;;;;5029964;28;20331;-85
2023/04/25 01:32:03;;;;;;;9.00;2.75;;;6.00;99.90;;;;;;5027706;28;20020;-85
2023/04/25 01:34:28;;;;;;;10.38;3.30;;;6.00;99.90;;;;;;5027091;28;20040;-87
2023/04/25 01:36:54;;;;;;;7.63;2.95;;;6.00;99.90;;;;;;5029280;28;20022;-85
2023/04/25 01:39:20;;;;;;;12.27;3.10;;;6.10;99.90;;;;;;5027597;28;20048;-85
2023/04/25 01:41:47;;;;;;;7.47;2.58;;;6.10;99.90;;;;;;5026561;28;20018;-85
2023/04/25 01:44:13;;;;;;;8.50;2.60;;;6.10;99.90;;;;;;5041975;28;20167;-84
2023/04/25 01:46:38;;;;;;;6.35;2.50;;;6.20;99.90;;;;;;5028365;28;20112;-85
2023/04/25 01:49:04;;;;;;;6.63;2.30;;;6.20;99.90;;;;;;5030720;28;20017;-86
2023/04/25 01:51:31;;;;;;;6.65;2.17;;;6.20;99.90;;;;;;5028826;28;20026;-86
2023/04/25 01:53:57;;;;;;;4.15;1.55;;;6.30;99.90;;;;;;5025010;28;20049;-85
2023/04/25 01:56:22;;;;;;;5.45;2.13;;;6.30;99.90;;;;;;5041589;28;20049;-85
2023/04/25 01:58:49;;;;;;;6.93;1.90;;;6.30;99.90;;;;;;5032856;28;20073;-86
2023/04/25 02:01:15;;;;;;;8.68;3.20;;;6.40;99.90;;;;;;5029203;28;20033;-80
2023/04/25 02:03:41;;;;;;;8.70;3.10;;;6.40;99.90;;;;;;5028840;28;20018;-84
2023/04/25 02:06:06;;;;;;;9.48;2.97;;;6.30;99.90;;;;;;5034495;28;20497;-85
2023/04/25 02:08:32;;;;;;;8.70;2.88;;;6.30;99.90;;;;;;5025897;28;20050;-85
2023/04/25 02:10:57;;;;;;;9.73;3.25;;;6.30;99.90;;;;;;5030208;28;20025;-85
2023/04/25 02:13:23;;;;;;;10.35;3.13;;;6.30;99.90;;;;;;5029833;28;20024;-85
2023/04/25 02:15:49;;;;;;;7.40;2.55;;;6.30;99.90;;;;;;5026961;28;20037;-86
2023/04/25 02:18:16;;;;;;;6.93;2.42;;;6.30;99.90;;;;;;5031932;28;20044;-79
2023/04/25 02:20:42;;;;;;;7.22;3.10;;;6.20;99.90;;;;;;5027264;28;20048;-84
2023/04/25 02:23:08;;;;;;;6.35;2.47;;;6.20;99.90;;;;;;5028631;28;20018;-85
2023/04/25 02:25:33;;;;;;;7.53;2.63;;;6.20;99.90;;;;;;5029618;28;20030;-84
2023/04/25 02:27:59;;;;;;;9.00;2.75;;;6.20;99.90;;;;;;5026920;28;20034;-86
2023/04/25 02:30:25;;;;;;;10.00;2.95;;;6.20;99.90;;;;;;5040887;28;20026;-83
2023/04/25 02:32:50;;;;;;;10.63;3.78;;;6.10;99.90;;;;;;5026695;28;20501;-84
2023/04/25 02:35:16;;;;;;;11.00;3.10;;;6.10;99.90;;;;;;5031049;28;20014;-87
2023/04/25 02:37:42;;;;;;;5.45;2.58;;;6.10;99.90;;;;;;5034808;28;20045;-86
2023/04/25 02:40:08;;;;;;;6.80;2.63;;;6.00;99.90;;;;;;5026872;28;20037;-85
2023/04/25 02:42:34;;;;;;;10.15;2.35;;;6.00;99.90;;;;;;5030785;28;20029;-85
2023/04/25 02:45:00;;;;;;;6.20;2.88;;;5.90;99.90;;;;;;5029055;28;20112;-85
2023/04/25 02:47:26;;;;;;;8.35;2.33;;;5.80;99.90;;;;;;5031407;28;20029;-86
2023/04/25 02:49:51;;;;;;;7.75;2.28;;;5.70;99.90;;;;;;5026455;28;20026;-86
2023/04/25 02:52:17;;;;;;;8.88;2.70;;;5.70;99.90;;;;;;5045351;28;20029;-85
2023/04/25 02:54:42;;;;;;;13.07;2.58;;;5.70;99.90;;;;;;5025663;28;20030;-85
2023/04/25 02:57:08;;;;;;;8.30;2.67;;;5.70;99.90;;;;;;5026548;28;20025;-85
2023/04/25 02:59:34;;;;;;;8.85;2.50;;;5.60;99.90;;;;;;5026840;28;20061;-83
2023/04/25 03:02:00;;;;;;;5.95;2.28;;;5.60;99.90;;;;;;5028452;28;20112;-88
2023/04/25 03:04:25;;;;;;;5.78;2.17;;;5.60;99.90;;;;;;5029701;28;20037;-85
2023/04/25 03:06:51;;;;;;;7.47;2.10;;;5.60;99.90;;;;;;5028740;28;20022;-84
2023/04/25 03:09:17;;;;;;;8.85;2.53;;;5.60;99.90;;;;;;5032601;28;20077;-86
2023/04/25 03:11:45;;;;;;;7.70;2.40;;;5.50;99.90;;;;;;5032825;28;20041;-85
2023/04/25 03:14:11;;;;;;;7.10;2.30;;;5.50;99.90;;;;;;5026591;28;20068;-86
2023/04/25 03:16:36;;;;;;;7.43;2.40;;;5.50;99.90;;;;;;5026539;28;20030;-86
2023/04/25 03:19:03;;;;;;;6.90;2.00;;;5.40;99.90;;;;;;5026113;28;20113;-88
2023/04/25 03:21:29;;;;;;;6.22;2.30;;;5.40;99.90;;;;;;5035865;28;20071;-87
2023/04/25 03:23:54;;;;;;;5.53;2.38;;;5.30;99.90;;;;;;5039382;28;20053;-85
2023/04/25 03:26:20;;;;;;;5.22;1.92;;;5.30;99.90;;;;;;5027262;28;20052;-87
2023/04/25 03:28:46;;;;;;;8.43;2.17;;;5.20;99.90;;;;;;5026575;28;20029;-84
2023/04/25 03:31:11;;;;;;;6.50;2.45;;;5.20;99.90;;;;;;5028153;28;20025;-84
2023/04/25 03:33:37;;;;;;;5.03;1.92;;;5.20;99.90;;;;;;5028088;28;20448;-85
2023/04/25 03:36:03;;;;;;;8.00;2.50;;;5.10;99.90;;;;;;5028274;28;20434;-86
2023/04/25 03:38:28;;;;;;;6.15;2.30;;;5.10;99.90;;;;;;5026150;28;20034;-84
2023/04/25 03:40:54;;;;;;;7.10;2.85;;;5.00;99.90;;;;;;5022907;28;20135;-83
2023/04/25 03:43:20;;;;;;;9.48;2.63;;;5.00;99.90;;;;;;5022242;28;20036;-85
2023/04/25 03:45:45;;;;;;;8.50;2.58;;;5.00;99.90;;;;;;5020887;28;20464;-85
2023/04/25 03:48:11;;;;;;;9.20;2.65;;;5.00;99.90;;;;;;5024271;28;20026;-84
2023/04/25 03:50:37;;;;;;;6.82;2.60;;;5.00;99.90;;;;;;5027325;28;20037;-85
2023/04/25 03:53:02;;;;;;;5.63;2.38;;;5.00;99.90;;;;;;5025756;28;20041;-84
2023/04/25 03:55:28;;;;;;;7.68;2.90;;;5.10;99.90;;;;;;5027328;28;20018;-86
2023/04/25 03:57:54;;;;;;;11.13;4.75;;;5.10;99.90;;;;;;5039665;28;20109;-83
2023/04/25 04:00:19;;;;;;;6.72;3.05;;;5.10;99.90;;;;;;5036954;28;20135;-87
2023/04/25 04:02:45;;;;;;;6.15;2.90;;;5.10;99.90;;;;;;5023954;28;20049;-86
2023/04/25 04:05:10;;;;;;;6.30;2.97;;;5.00;99.90;;;;;;5020307;28;20030;-84
2023/04/25 04:07:39;;;;;;;5.45;2.65;;;5.00;99.90;;;;;;5027325;28;20037;-83
2023/04/25 04:10:07;;;;;;;6.15;2.25;;;4.90;99.90;;;;;;5027017;28;20034;-86
2023/04/25 04:12:33;;;;;;;5.38;2.95;;;4.80;99.90;;;;;;5046070;28;20744;-85
2023/04/25 04:14:59;;;;;;;7.82;2.78;;;4.70;99.90;;;;;;5030010;28;20029;-85
2023/04/25 04:17:25;;;;;;;7.07;3.20;;;4.70;99.90;;;;;;5034919;28;20369;-84
2023/04/25 04:19:50;;;;;;;9.07;3.15;;;4.60;99.90;;;;;;5031982;28;20033;-86
2023/04/25 04:22:16;;;;;;;7.68;3.10;;;4.60;99.90;;;;;;5029045;28;20029;-83
2023/04/25 04:24:43;;;;;;;6.55;2.83;;;4.50;99.90;;;;;;5033159;28;20026;-85
2023/04/25 04:27:10;;;;;;;6.82;3.10;;;4.50;99.90;;;;;;5027898;28;20030;-84
2023/04/25 04:29:36;;;;;;;6.80;3.08;;;4.50;99.90;;;;;;5023989;28;20021;-84
2023/04/25 04:32:03;;;;;;;7.03;3.78;;;4.50;99.90;;;;;;5028154;28;20033;-84
2023/04/25 04:34:28;;;;;;;9.52;3.38;;;4.50;99.90;;;;;;5029733;28;20072;-85
2023/04/25 04:36:54;;;;;;;6.43;2.75;;;4.50;99.90;;;;;;5028441;28;20671;-84
2023/04/25 04:39:21;;;;;;;6.90;3.30;;;4.50;99.90;;;;;;5028908;28;20049;-83
2023/04/25 04:41:46;;;;;;;6.10;2.70;;;4.60;99.90;;;;;;5030122;28;20028;-84
2023/04/25 04:44:12;;;;;;;8.90;3.35;;;4.60;99.90;;;;;;5026295;28;20033;-86
2023/04/25 04:46:41;;;;;;;7.03;3.47;;;4.70;99.90;;;;;;5028111;28;20033;-86
2023/04/25 04:49:09;;;;;;;9.93;2.95;;;4.70;99.90;;;;;;5031141;28;20024;-87
2023/04/25 04:51:35;;;;;;;7.53;3.17;;;4.80;99.90;;;;;;5030114;28;20029;-85
2023/04/25 04:54:02;;;;;;;9.18;3.53;;;4.80;99.90;;;;;;5027727;28;20440;-85
2023/04/25 04:56:30;;;;;;;9.65;3.25;;;4.90;99.90;;;;;;5027569;28;20544;-87
2023/04/25 04:58:56;;;;;;;7.40;3.03;;;5.00;99.90;;;;;;5030384;28;20060;-86
2023/04/25 05:01:22;;;;;;;7.60;2.90;;;4.90;99.90;;;;;;5032029;28;20495;-86
2023/04/25 05:03:48;;;;;;;8.45;3.40;;;5.00;99.90;;;;;;5027768;28;20018;-85
2023/04/25 05:06:13;;;;;;;7.93;2.95;;;5.00;99.90;;;;;;5031777;28;20497;-85
2023/04/25 05:08:39;;;;;;;6.57;2.65;;;5.10;99.90;;;;;;5031267;28;20111;-87
2023/04/25 05:11:05;;;;;;;8.13;2.88;;;5.10;99.90;;;;;;5030155;28;20032;-87
2023/04/25 05:13:30;;;;;;;6.63;2.65;;;5.20;99.90;;;;;;5031899;28;20032;-88
2023/04/25 05:15:56;;;;;;;8.10;3.50;;;5.20;99.90;;;;;;5029010;28;20052;-85
2023/04/25 05:18:21;;;;;;;10.65;2.47;;;5.30;99.90;;;;;;5029591;28;20056;-87
2023/04/25 05:20:47;;;;;;;6.85;2.28;;;5.40;99.90;;;;;;5027741;28;20037;-87
2023/04/25 05:23:12;;;;;;;12.32;3.10;;;5.50;99.90;;;;;;5029640;28;20040;-84
2023/04/25 05:25:38;;;;;;;10.00;2.95;;;5.50;99.90;;;;;;5030500;28;20372;-85
2023/04/25 05:28:04;;;;;;;6.95;2.22;;;5.60;99.90;;;;;;5024276;28;20029;-85
2023/04/25 05:30:30;;;;;;;8.48;2.47;;;5.70;99.90;;;;;;5029818;28;20025;-86
2023/04/25 05:32:55;;;;;;;5.28;2.08;;;5.70;99.90;;;;;;5029400;28;20056;-84
2023/04/25 05:35:21;;;;;;;6.80;2.53;;;5.80;99.90;;;;;;5035145;28;20056;-84
2023/04/25 05:37:47;;;;;;;9.55;2.42;;;5.90;99.90;;;;;;5031352;28;20033;-85
2023/04/25 05:40:12;;;;;;;9.48;2.40;;;5.90;99.90;;;;;;5030653;28;20087;-86
2023/04/25 05:42:38;;;;;;;6.43;3.08;;;6.00;99.90;;;;;;5024030;28;20020;-88
2023/04/25 05:45:04;;;;;;;8.45;2.90;;;6.00;99.90;;;;;;5019755;28;20483;-85
2023/04/25 05:47:30;;;;;;;8.07;2.63;;;6.00;99.90;;;;;;5028812;28;20021;-85
2023/04/25 05:49:55;;;;;;;7.13;2.45;;;6.00;99.90;;;;;;5024751;28;20032;-86
2023/04/25 05:52:21;;;;;;;7.30;2.83;;;6.10;99.90;;;;;;5024174;28;20398;-85
2023/04/25 05:54:46;;;;;;;6.13;2.60;;;6.10;99.90;;;;;;5031001;28;20025;-85
2023/04/25 05:57:23;;;;;;;4.43;2.10;;;6.20;99.90;;;;;;5028487;28;20371;-85
2023/04/25 05:59:48;;;;;;;8.00;2.42;;;6.30;99.90;;;;;;5032393;28;20029;-85
2023/04/25 06:02:14;;;;;;;10.57;2.45;;;6.40;99.90;;;;;;5025393;28;20024;-86
2023/04/25 06:04:40;;;;;;;9.93;2.72;;;6.50;99.90;;;;;;5028558;28;20025;-87
2023/04/25 06:07:05;;;;;;;6.15;2.30;;;6.60;99.90;;;;;;5029209;28;20028;-84
2023/04/25 06:09:31;;;;;;;9.35;1.90;;;6.70;99.90;;;;;;5029369;28;20053;-85
2023/04/25 06:11:56;;;;;;;9.50;2.53;;;6.80;99.90;;;;;;5026892;28;20171;-86
2023/04/25 06:14:22;;;;;;;7.25;2.58;;;6.80;99.90;;;;;;5025885;28;20022;-86
2023/04/25 06:16:47;;;;;;;7.60;2.20;;;6.90;99.90;;;;;;5029647;28;20036;-86
2023/04/25 06:19:13;;;;;;;8.23;2.78;;;6.90;99.90;;;;;;5029884;28;20029;-86
2023/04/25 06:21:38;;;;;;;4.70;2.28;;;6.90;99.90;;;;;;5030158;28;20037;-87
2023/04/25 06:24:04;;;;;;;6.65;2.05;;;7.00;99.90;;;;;;5024266;28;20049;-88
2023/04/25 06:26:29;;;;;;;4.65;1.77;;;6.90;99.90;;;;;;5027713;28;20061;-86
2023/04/25 06:28:55;;;;;;;5.03;1.77;;;7.00;99.90;;;;;;5029426;28;20080;-83
2023/04/25 06:31:20;;;;;;;6.88;1.90;;;7.00;99.90;;;;;;5032300;28;20033;-87
2023/04/25 06:33:48;;;;;;;6.28;2.30;;;7.10;99.90;;;;;;5030266;28;20021;-89
2023/04/25 06:36:13;;;;;;;7.18;2.00;;;7.10;99.90;;;;;;5028695;28;20018;-84
2023/04/25 06:38:39;;;;;;;5.70;2.03;;;7.20;99.90;;;;;;5024958;28;20646;-87
2023/04/25 06:41:05;;;;;;;6.45;2.00;;;7.30;99.90;;;;;;5027685;28;20083;-86
2023/04/25 06:43:33;;;;;;;6.38;1.88;;;7.40;99.90;;;;;;5030884;28;20368;-88
2023/04/25 06:45:59;;;;;;;5.65;1.98;;;7.50;99.90;;;;;;5031358;28;20871;-88
2023/04/25 06:48:26;;;;;;;6.93;2.10;;;7.50;99.90;;;;;;5029520;28;20036;-86
2023/04/25 06:50:51;;;;;;;6.30;2.08;;;7.60;99.90;;;;;;5031703;28;20052;-86
2023/04/25 06:53:17;;;;;;;5.43;2.45;;;7.70;99.90;;;;;;5026888;28;20026;-87
2023/04/25 06:55:42;;;;;;;5.95;2.15;;;7.70;99.90;;;;;;5024164;28;20064;-86
2023/04/25 06:58:08;;;;;;;5.63;2.40;;;7.80;99.90;;;;;;5026799;28;20624;-87
2023/04/25 07:00:33;;;;;;;6.53;2.30;;;7.90;99.90;;;;;;5024459;28;20414;-89
2023/04/25 07:02:59;;;;;;;5.80;2.08;;;7.90;99.90;;;;;;5047598;28;20108;-87
2023/04/25 07:05:25;;;;;;;10.07;3.03;;;8.00;99.90;;;;;;5032343;28;20036;-87
2023/04/25 07:07:50;;;;;;;7.25;2.05;;;8.00;99.90;;;;;;5031589;28;20057;-86
2023/04/25 07:10:16;;;;;;;5.97;2.17;;;8.00;99.90;;;;;;5028541;28;20025;-88
2023/04/25 07:12:41;;;;;;;5.85;2.10;;;8.10;99.90;;;;;;5032849;28;20025;-87
2023/04/25 07:15:09;;;;;;;6.40;2.03;;;8.10;99.90;;;;;;5033746;28;20025;-91
2023/04/25 07:17:35;;;;;;;5.75;1.55;;;8.20;99.90;;;;;;5038649;28;20040;-83
2023/04/25 07:20:00;;;;;;;6.30;2.13;;;8.30;99.90;;;;;;5036809;28;20041;-86
2023/04/25 07:22:26;;;;;;;8.32;2.33;;;8.30;99.90;;;;;;5030844;28;20029;-91
2023/04/25 07:24:53;;;;;;;4.75;1.55;;;8.40;99.90;;;;;;5034487;28;20055;-89
2023/04/25 07:27:18;;;;;;;7.15;1.67;;;8.50;99.90;;;;;;5034841;28;20028;-91
2023/04/25 07:29:44;;;;;;;4.78;1.27;;;8.50;99.90;;;;;;5029719;28;20030;-89
2023/04/25 07:32:11;;;;;;;5.20;1.50;;;8.60;99.90;;;;;;5027957;28;20033;-84
2023/04/25 07:34:38;;;;;;;4.65;1.38;;;8.60;99.90;;;;;;5025685;28;20038;-87
2023/04/25 07:37:04;;;;;;;4.88;1.33;;;8.60;99.90;;;;;;5047627;28;20109;-87
2023/04/25 07:39:30;;;;;;;5.72;1.60;;;8.70;99.90;;;;;;5034364;28;20045;-86
2023/04/25 07:41:56;;;;;;;5.22;1.25;;;8.60;99.90;;;;;;5032158;28;20026;-87
2023/04/25 07:44:21;;;;;;;3.53;1.05;;;8.60;99.90;;;;;;5028698;28;20022;-85
2023/04/25 07:46:47;;;;;;;5.97;1.40;;;8.60;99.90;;;;;;5034180;28;20452;-88
2023/04/25 07:49:13;;;;;;;6.90;1.30;;;8.60;99.90;;;;;;5030442;28;20017;-87
2023/04/25 07:51:38;;;;;;;6.07;1.77;;;8.50;99.90;;;;;;5029440;28;20443;-85
2023/04/25 07:54:05;;;;;;;6.35;1.83;;;8.50;99.90;;;;;;5026801;28;20044;-87
2023/04/25 07:56:30;;;;;;;8.35;1.52;;;8.60;99.90;;;;;;5034727;28;20407;-85
2023/04/25 07:58:56;;;;;;;4.70;1.65;;;8.60;99.90;;;;;;5028810;28;20514;-88
2023/04/25 08:01:22;;;;;;;6.72;1.70;;;8.70;99.90;;;;;;5026502;28;20025;-85
2023/04/25 08:03:47;;;;;;;8.98;1.50;;;8.70;99.90;;;;;;5033759;28;20395;-85
2023/04/25 08:06:13;;;;;;;8.70;1.48;;;8.80;99.90;;;;;;5046671;28;20433;-88
2023/04/25 08:08:38;;;;;;;9.48;1.65;;;8.80;99.90;;;;;;5032157;28;20502;-87
2023/04/25 08:11:04;;;;;;;7.93;1.38;;;8.90;99.90;;;;;;5030559;28;20014;-87
2023/04/25 08:13:29;;;;;;;7.80;1.33;;;9.00;99.90;;;;;;5030371;28;20041;-86
2023/04/25 08:15:55;;;;;;;7.68;1.27;;;9.10;99.90;;;;;;5030845;28;20108;-88
2023/04/25 08:18:20;;;;;;;5.85;1.70;;;9.10;99.90;;;;;;5030558;28;20045;-87
2023/04/25 08:20:46;;;;;;;4.70;1.38;;;9.20;99.90;;;;;;5034118;28;20038;-86
2023/04/25 08:23:12;;;;;;;9.32;1.48;;;9.30;99.90;;;;;;5032613;28;20013;-87
2023/04/25 08:25:37;;;;;;;6.25;1.27;;;9.40;99.90;;;;;;5029110;28;20486;-86
2023/04/25 08:28:03;;;;;;;3.78;1.15;;;9.50;99.90;;;;;;5029031;28;20021;-85
2023/04/25 08:30:29;;;;;;;4.07;1.08;;;9.60;99.90;;;;;;5028008;28;20498;-87
2023/04/25 08:32:55;;;;;;;9.93;1.27;;;9.80;99.90;;;;;;5029671;28;20036;-87
2023/04/25 08:35:20;;;;;;;5.10;0.90;;;9.80;99.90;;;;;;5028415;28;20104;-88
2023/04/25 08:37:46;;;;;;;3.13;1.17;;;9.80;99.90;;;;;;5028760;28;20040;-87
2023/04/25 08:40:14;;;;;;;5.50;1.00;;;9.80;99.90;;;;;;5029738;28;20104;-85
2023/04/25 08:42:41;;;;;;;7.85;1.90;;;9.80;99.90;;;;;;5026336;28;20635;-85
2023/04/25 08:45:08;;;;;;;6.05;1.42;;;10.00;99.90;;;;;;5028931;28;20487;-88
2023/04/25 08:47:37;;;;;;;5.75;1.00;;;10.10;99.90;;;;;;5030281;28;20068;-87
2023/04/25 08:50:03;;;;;;;4.38;1.20;;;10.20;99.90;;;;;;5031372;28;20020;-85
2023/04/25 08:52:35;;;;;;;3.20;0.93;;;10.20;99.90;;;;;;5024685;28;20029;-85
2023/04/25 08:55:02;;;;;;;4.78;1.20;;;10.20;99.90;;;;;;5026022;28;20022;-86
2023/04/25 08:57:30;;;;;;;4.80;1.08;;;10.10;99.90;;;;;;5029781;28;20025;-86
2023/04/25 08:59:57;;;;;;;8.13;1.20;;;10.10;99.90;;;;;;5029054;28;20381;-87
2023/04/25 09:02:24;;;;;;;5.40;1.48;;;10.20;99.90;;;;;;5025309;28;20083;-84
2023/04/25 09:04:50;;;;;;;4.07;0.80;;;10.20;99.90;;;;;;5033291;28;20029;-87
2023/04/25 09:07:18;;;;;;;5.22;0.77;;;10.30;99.90;;;;;;5026286;28;20022;-86
2023/04/25 09:09:44;;;;;;;6.22;1.10;;;10.30;99.90;;;;;;5028206;28;20457;-86
2023/04/25 09:12:10;;;;;;;5.25;1.20;;;10.20;99.90;;;;;;5025393;28;20021;-85
2023/04/25 09:14:35;;;;;;;2.63;0.60;;;10.00;99.90;;;;;;5025651;28;20033;-86
2023/04/25 09:17:03;;;;;;;5.75;1.20;;;9.70;99.90;;;;;;5028803;28;20028;-86
2023/04/25 09:19:30;;;;;;;3.42;0.90;;;9.50;99.90;;;;;;5026792;28;20026;-84
2023/04/25 09:21:57;;;;;;;6.07;0.88;;;9.30;99.90;;;;;;5040256;28;20033;-84
2023/04/25 09:24:39;;;;;;;4.32;1.25;;;9.20;99.90;;;;;;5028643;28;20792;-85
2023/04/25 09:27:06;;;;;;;5.00;0.85;;;9.20;99.90;;;;;;5027267;28;20094;-84
2023/04/25 09:29:34;;;;;;;4.03;0.68;;;9.30;99.90;;;;;;5025316;28;20533;-87
2023/04/25 09:32:16;;;;;;;4.00;0.90;;;9.30;99.90;;;;;;5024156;28;20026;-85
2023/04/25 09:34:44;;;;;;;3.47;0.85;;;9.30;99.90;;;;;;5024141;28;20168;-87
2023/04/25 09:37:11;;;;;;;4.43;0.80;;;9.30;99.90;;;;;;5029162;28;20028;-85
2023/04/25 09:39:38;;;;;;;3.90;0.80;;;9.40;99.90;;;;;;5037152;28;20033;-85
2023/04/25 09:42:05;;;;;;;2.78;0.70;;;9.50;99.90;;;;;;5026659;28;20429;-87
2023/04/25 09:44:31;;;;;;;3.25;0.70;;;9.60;99.90;;;;;;5028107;28;20029;-88
2023/04/25 09:46:57;;;;;;;2.20;0.50;;;9.70;99.90;;;;;;5026663;28;20017;-88
2023/04/25 09:49:23;;;;;;;6.47;1.23;;;9.90;99.90;;;;;;5029651;28;20016;-87
2023/04/25 09:51:58;;;;;;;3.50;0.88;;;10.70;99.90;;;;;;5026429;28;20487;-85
2023/04/25 09:54:27;;;;;;;6.85;1.10;;;11.80;99.90;;;;;;5030947;28;20026;-87
2023/04/25 09:56:53;;;;;;;4.30;0.80;;;13.10;99.90;;;;;;5025008;28;20021;-88
2023/04/25 09:59:25;;;;;;;4.90;1.20;;;14.10;99.90;;;;;;5029858;28;20033;-87
2023/04/25 10:01:52;;;;;;;4.70;1.13;;;15.10;99.90;;;;;;5027006;28;20102;-87
2023/04/25 10:04:22;;;;;;;8.40;1.40;;;15.80;99.90;;;;;;5025624;28;20025;-87
2023/04/25 10:06:50;;;;;;;4.95;1.10;;;16.10;99.90;;;;;;5028778;28;20386;-86
2023/04/25 10:09:17;;;;;;;4.53;0.80;;;16.50;99.90;;;;;;5026340;28;20048;-88
2023/04/25 10:11:45;;;;;;;3.80;0.80;;;16.40;99.90;;;;;;5016303;28;20029;-85
2023/04/25 10:14:12;;;;;;;4.05;1.08;;;16.10;99.90;;;;;;5019228;28;20057;-86
2023/04/25 10:16:39;;;;;;;2.88;0.70;;;16.40;99.90;;;;;;5020730;28;20052;-88
2023/04/25 10:19:05;;;;;;;3.35;0.88;;;15.60;99.90;;;;;;5022068;28;20390;-86
2023/04/25 10:21:33;;;;;;;3.50;0.90;;;14.70;99.90;;;;;;5020378;28;20029;-84
2023/04/25 10:23:59;;;;;;;3.95;0.88;;;14.00;99.90;;;;;;5024638;28;20033;-87
2023/04/25 10:26:25;;;;;;;6.47;1.10;;;13.20;99.90;;;;;;5021919;28;20036;-87
2023/04/25 10:29:01;;;;;;;4.13;0.73;;;12.70;99.90;;;;;;5024595;28;20021;-86
2023/04/25 10:31:29;;;;;;;6.47;1.25;;;12.30;99.90;;;;;;5021141;28;20056;-86
2023/04/25 10:33:54;;;;;;;5.05;0.85;;;12.30;99.90;;;;;;5026087;28;20018;-88
2023/04/25 10:36:22;;;;;;;4.28;1.10;;;12.70;99.90;;;;;;5027562;28;20659;-85
2023/04/25 10:38:54;;;;;;;3.08;0.70;;;12.80;99.90;;;;;;5023032;28;20048;-87
2023/04/25 10:41:21;;;;;;;6.85;1.20;;;12.70;99.90;;;;;;5041968;28;20120;-87
2023/04/25 10:43:47;;;;;;;4.32;1.13;;;12.40;99.90;;;;;;5044360;28;20477;-86
2023/04/25 10:46:14;;;;;;;4.45;0.85;;;12.20;99.90;;;;;;5024073;28;20395;-88
2023/04/25 10:48:46;;;;;;;2.28;0.60;;;11.90;99.90;;;;;;5028576;28;20029;-88
2023/04/25 10:51:16;;;;;;;4.65;0.95;;;11.80;99.90;;;;;;5044338;28;20161;-87
2023/04/25 10:53:56;;;;;;;4.85;0.95;;;11.80;99.90;;;;;;5030978;28;20025;-86
2023/04/25 10:56:26;;;;;;;4.95;0.82;;;11.90;99.90;;;;;;5033410;28;20068;-88
2023/04/25 10:58:52;;;;;;;3.17;1.08;;;12.10;99.90;;;;;;5030092;28;20026;-88
2023/04/25 11:01:25;;;;;;;3.88;1.13;;;12.20;99.90;;;;;;5027655;28;20037;-87
2023/04/25 11:03:57;;;;;;;5.45;1.00;;;12.20;99.90;;;;;;5048058;28;20060;-87
2023/04/25 11:06:27;;;;;;;4.07;0.80;;;12.40;99.90;;;;;;5033812;28;20017;-87
2023/04/25 11:08:53;;;;;;;3.90;0.82;;;12.60;99.90;;;;;;5033636;28;20087;-87
2023/04/25 11:11:19;;;;;;;3.47;0.80;;;12.90;99.90;;;;;;5034928;28;20018;-85
2023/04/25 11:13:50;;;;;;;4.30;1.02;;;14.00;99.90;;;;;;5027243;28;20560;-86
2023/04/25 11:16:16;;;;;;;3.30;0.63;;;14.80;99.90;;;;;;5029546;28;20105;-87
2023/04/25 11:18:42;;;;;;;2.33;0.63;;;15.50;99.90;;;;;;5032583;28;20017;-86
2023/04/25 11:21:09;;;;;;;2.33;0.70;;;16.10;99.90;;;;;;5027010;28;20045;-85
2023/04/25 11:23:34;;;;;;;7.50;1.20;;;16.90;99.90;;;;;;5031223;28;20477;-86
2023/04/25 11:26:01;;;;;;;2.67;0.60;;;17.20;99.90;;;;;;5030354;28;20108;-86
2023/04/25 11:28:26;;;;;;;2.88;0.80;;;17.10;99.90;;;;;;5032830;28;20444;-86
2023/04/25 11:30:52;;;;;;;2.53;0.60;;;17.70;99.90;;;;;;5032795;28;20120;-85
2023/04/25 11:33:22;;;;;;;1.88;0.70;;;18.40;99.90;;;;;;5033148;28;20028;-81
2023/04/25 11:35:48;;;;;;;3.55;0.70;;;19.00;99.90;;;;;;5033028;28;20083;-83
2023/04/25 11:38:13;;;;;;;3.22;0.73;;;19.30;99.50;;;;;;5034805;28;20451;-87
2023/04/25 11:40:40;;;;;;;3.40;0.90;;;19.10;97.90;;;;;;5036057;28;20038;-87
2023/04/25 11:43:06;;;;;;;2.42;0.65;;;19.00;98.40;;;;;;5033283;28;20139;-85
2023/04/25 11:45:31;;;;;;;2.08;0.60;;;18.70;98.20;;;;;;5029248;28;20120;-85
2023/04/25 11:47:57;;;;;;;3.95;0.80;;;18.30;98.90;;;;;;5033405;28;20120;-87
2023/04/25 11:50:22;;;;;;;3.13;0.70;;;18.40;98.60;;;;;;5032516;28;20079;-88
2023/04/25 11:52:48;;;;;;;3.20;0.80;;;18.60;98.10;;;;;;5033031;28;20021;-85
2023/04/25 11:55:19;;;;;;;3.13;0.68;;;18.40;97.60;;;;;;5029491;28;20490;-88
2023/04/25 11:57:48;;;;;;;2.60;0.73;;;18.40;97.00;;;;;;5029359;28;20022;-87
2023/04/25 12:00:23;;;;;;;2.63;0.70;;;18.50;96.90;;;;;;5033359;28;20057;-85
2023/04/25 12:02:54;;;;;;;1.88;0.73;;;18.70;96.80;;;;;;5030122;28;20523;-84
2023/04/25 12:05:23;;;;;;;2.20;0.60;;;18.30;96.60;;;;;;5041376;28;20025;-85
2023/04/25 12:07:49;;;;;;;2.85;0.70;;;17.70;95.80;;;;;;5023920;28;20095;-85
2023/04/25 12:10:18;;;;;;;2.67;0.70;;;16.90;96.20;;;;;;5029563;28;20026;-82
2023/04/25 12:12:46;;;;;;;4.25;1.05;;;16.00;96.60;;;;;;5028564;28;20052;-86
2023/04/25 12:15:15;;;;;;;3.33;1.17;;;14.90;97.30;;;;;;5029438;28;20032;-88
2023/04/25 12:17:48;;;;;;;3.08;0.70;;;13.90;98.60;;;;;;5027750;28;20049;-86
2023/04/25 12:20:15;;;;;;;;;;;13.20;99.80;;;;;;5044223;28;20128;-84
2023/04/25 12:22:50;;;;;;;3.72;0.90;;;12.70;99.90;;;;;;5028994;28;19992;-86
2023/04/25 12:25:40;;;;;;;3.65;0.82;;;12.40;99.90;;;;;;5025116;28;20037;-83
2023/04/25 12:28:20;;;;;;;4.32;1.10;;;12.10;99.90;;;;;;5025168;28;20047;-84
2023/04/25 12:31:06;;;;;;;4.95;1.30;;;11.70;99.90;;;;;;5023756;28;20036;-85
2023/04/25 12:33:33;;;;;;;6.95;1.20;;;11.40;99.90;;;;;;5024873;28;20037;-87
2023/04/25 12:35:59;;;;;;;2.88;0.73;;;11.10;99.90;;;;;;5044907;28;20021;-86
2023/04/25 12:38:30;;;;;;;4.10;1.00;;;11.00;99.90;;;;;;5025250;28;20040;-86
2023/04/25 12:40:56;;;;;;;4.47;0.80;;;11.00;99.90;;;;;;5027712;28;20033;-82
2023/04/25 12:43:22;;;;;;;2.72;0.60;;;11.00;99.90;;;;;;5025138;28;20039;-82
2023/04/25 12:45:50;;;;;;;2.63;0.80;;;11.20;99.90;;;;;;5027293;28;20021;-81
2023/04/25 12:48:15;;;;;;;4.07;0.82;;;11.20;99.90;;;;;;5026543;28;20024;-85
2023/04/25 12:50:41;;;;;;;2.58;0.60;;;11.40;99.90;;;;;;5026698;28;20025;-84